Latest Weather Observations for Newcastle Nobbys

IDN60801

Issued at 3:23 pm EDT Tuesday 27 February 2024 (issued every 10 minutes, with the page automatically refreshed every 10 minutes)

About weather observations | Map of weather stations | Latest weather observations for NSW | Other Formats
Station Details ID: 061055 Name: NEWCASTLE NOBBYS SIGNAL STATION AWS Lat: -32.92 Lon: 151.80 Height: 33.0 m
Data from the previous 72 hours. | See also: Recent months at Newcastle Nobbys
Date/Time
EDT
Temp
°C
App
Temp
°C
Dew
Point
°C
Rel
Hum
%
Delta-T
°C
Wind Press
QNH
hPa
Press
MSL
hPa
Rain since
9am
mm
Dir  Spd
km/h
Gust
km/h
Spd
kts
Gust
kts
27/03:00pm 22.9 21.3 20.1 84 1.8 ESE 28 33 15 18 - - 0.0
27/02:30pm 22.4 20.3 19.8 85 1.7 ESE 30 33 16 18 - - 0.0
27/02:00pm 22.5 21.3 20.0 86 1.6 SE 26 32 14 17 - - 0.0
27/01:30pm 22.8 21.0 19.6 82 2.0 ESE 28 32 15 17 - - 0.0
27/01:00pm 22.6 20.4 19.6 83 1.9 ESE 30 33 16 18 - - 0.0
27/12:30pm 22.6 20.8 19.6 83 1.9 ESE 28 32 15 17 - - 0.0
27/12:00pm 22.8 21.6 20.0 84 1.8 ESE 26 30 14 16 - - 0.0
27/11:30am 23.1 22.8 20.4 85 1.8 ESE 22 28 12 15 - - 0.0
27/11:00am 22.7 22.9 20.2 86 1.6 ESE 19 22 10 12 - - 0.0
27/10:30am 22.6 22.8 20.1 86 1.6 ESE 19 24 10 13 - - 0.0
27/10:00am 21.9 21.8 20.0 89 1.2 SE 20 24 11 13 - - 0.0
27/09:30am 22.1 21.4 20.2 89 1.2 SE 24 28 13 15 - - 0.0
27/09:00am 22.2 21.1 20.3 89 1.2 SE 26 30 14 16 - - 4.8
27/08:30am 22.5 23.1 20.2 87 1.5 SSE 17 26 9 14 - - 4.6
27/08:00am 22.7 26.4 20.0 85 1.7 CALM 0 2 0 1 - - 4.6
27/07:30am 22.5 23.4 20.0 86 1.6 ESE 15 17 8 9 - - 4.6
27/07:00am 22.1 22.2 20.0 88 1.3 ESE 19 22 10 12 - - 4.6
27/06:30am 21.9 23.0 20.4 91 1.0 ESE 15 19 8 10 - - 4.6
27/06:00am 22.1 24.4 20.7 92 0.9 E 9 19 5 10 - - 4.6
27/05:30am 21.8 24.7 20.6 93 0.8 SSE 6 9 3 5 - - 4.6
27/05:00am 21.6 24.1 20.2 92 0.9 SSE 7 11 4 6 - - 4.6
27/04:30am 21.9 23.6 20.2 90 1.1 SSE 11 15 6 8 - - 1.8
27/04:00am 22.0 20.9 20.3 90 1.1 SSE 26 30 14 16 - - 1.8
27/03:30am 22.8 23.2 20.9 89 1.2 SE 20 26 11 14 - - 1.8
27/03:00am 22.9 24.5 20.8 88 1.4 ESE 13 17 7 9 - - 1.8
27/02:30am 23.0 20.3 20.5 86 1.6 SSE 35 43 19 23 - - 1.8
27/02:00am 23.3 20.5 20.2 83 2.0 S 35 43 19 23 - - 1.8
27/01:30am 23.1 21.7 20.4 85 1.8 SSE 28 33 15 18 - - 1.8
27/01:00am 22.7 22.0 20.2 86 1.6 SE 24 35 13 19 - - 1.4
27/12:30am 23.1 22.1 20.4 85 1.8 SSE 26 33 14 18 - - 1.0
27/12:26am 23.0 20.8 20.3 85 1.7 SSE 32 50 17 27 - - 0.8
27/12:00am 23.5 20.6 20.8 85 1.8 SSE 37 44 20 24 - - 0.0
 
Date/Time
EDT
Temp
°C
App
Temp
°C
Dew
Point
°C
Rel
Hum
%
Delta-T
°C
Wind Press
QNH
hPa
Press
MSL
hPa
Rain since
9am
mm
Dir  Spd
km/h
Gust
km/h
Spd
kts
Gust
kts
26/11:30pm 23.8 21.7 20.9 84 1.9 S 33 43 18 23 - - 0.0
26/11:00pm 23.8 21.8 21.1 85 1.8 S 33 46 18 25 - - 0.0
26/10:30pm 23.7 21.9 21.2 86 1.6 S 32 35 17 19 - - 0.0
26/10:00pm 23.9 24.3 21.8 88 1.4 SSW 22 28 12 15 - - 0.0
26/09:30pm 24.0 23.7 21.9 88 1.4 SSW 26 32 14 17 - - 0.0
26/09:00pm 24.0 23.6 21.7 87 1.5 SSW 26 32 14 17 - - 0.0
26/08:30pm 24.2 23.7 22.1 88 1.4 S 28 35 15 19 - - 0.0
26/08:00pm 24.1 24.0 21.4 85 1.8 SSW 24 30 13 16 - - 0.0
26/07:30pm 24.1 23.1 21.2 84 1.9 S 28 32 15 17 - - 0.0
26/07:00pm 24.1 23.1 21.2 84 1.9 S 28 33 15 18 - - 0.0
26/06:30pm 24.2 23.1 21.1 83 2.0 S 28 33 15 18 - - 0.0
26/06:00pm 24.2 22.8 21.1 83 2.0 S 30 35 16 19 - - 0.0
26/05:30pm 24.3 23.8 21.4 84 1.9 SSW 26 33 14 18 - - 0.0
26/05:00pm 24.5 23.2 21.4 83 2.0 S 30 35 16 19 - - 0.0
26/04:30pm 24.4 23.2 21.5 84 1.9 S 30 37 16 20 - - 0.0
26/04:00pm 24.3 23.0 21.4 84 1.9 S 30 33 16 18 - - 0.0
26/03:30pm 24.8 23.1 21.3 81 2.3 S 32 37 17 20 - - 0.0
26/03:00pm 24.8 23.0 21.1 80 2.4 S 32 35 17 19 - - 0.0
26/02:30pm 24.5 23.7 20.8 80 2.4 S 26 32 14 17 - - 0.0
26/02:00pm 24.6 24.9 20.7 79 2.6 SSE 20 33 11 18 - - 0.0
26/01:30pm 25.4 26.6 21.5 79 2.6 E 17 20 9 11 - - 0.0
26/01:00pm 25.5 26.2 21.2 77 2.8 E 19 22 10 12 - - 0.0
26/12:30pm 26.1 27.1 21.1 74 3.3 E 17 22 9 12 - - 0.0
26/12:00pm 27.9 29.0 20.5 64 4.9 ENE 15 22 8 12 - - 0.0
26/11:30am 29.2 30.5 19.2 54 6.5 N 11 19 6 10 - - 0.0
26/11:00am 27.0 26.3 18.6 60 5.4 NNW 20 28 11 15 - - 0.0
26/10:30am 25.9 25.5 19.3 67 4.2 NNW 20 26 11 14 - - 0.0
26/10:00am 24.7 24.1 19.8 74 3.2 NNW 22 30 12 16 - - 0.0
26/09:30am 23.3 23.6 19.5 79 2.4 NNW 17 24 9 13 - - 0.0
26/09:00am 21.7 22.0 18.7 83 1.9 NNW 15 20 8 11 - - 0.0
26/08:30am 20.7 21.3 18.6 88 1.3 NW 13 19 7 10 - - 0.0
26/08:00am 19.4 20.1 17.9 91 0.9 NW 11 13 6 7 - - 0.0
26/07:30am 18.8 18.8 17.3 91 0.9 NW 13 17 7 9 - - 0.0
26/07:00am 19.2 20.6 17.7 91 0.9 NNW 7 11 4 6 - - 0.0
26/06:30am 19.3 20.3 17.8 91 0.9 NW 9 9 5 5 - - 0.0
26/06:00am 19.5 20.5 17.8 90 1.0 NW 9 13 5 7 - - 0.0
26/05:30am 20.1 21.3 18.2 89 1.2 NNW 9 11 5 6 - - 0.0
26/05:00am 20.4 22.3 18.5 89 1.2 N 6 7 3 4 - - 0.0
26/04:30am 20.5 22.3 18.3 87 1.4 NNW 6 7 3 4 - - 0.0
26/04:00am 20.6 22.4 18.2 86 1.5 NNW 6 7 3 4 - - 0.0
26/03:30am 20.9 22.4 18.1 84 1.7 N 7 9 4 5 - - 0.0
26/03:00am 21.1 22.8 18.1 83 1.9 NNW 6 7 3 4 - - 0.0
26/02:30am 21.1 22.7 18.3 84 1.7 N 7 9 4 5 - - 0.0
26/02:00am 21.2 22.7 18.0 82 2.0 N 7 9 4 5 - - 0.0
26/01:30am 21.7 22.0 17.9 79 2.4 NNE 13 19 7 10 - - 0.0
26/01:00am 22.1 22.6 18.3 79 2.4 NNE 13 17 7 9 - - 0.0
26/12:30am 22.6 23.1 18.4 77 2.6 NE 13 20 7 11 - - 0.0
26/12:00am 22.7 23.0 18.7 78 2.5 NE 15 20 8 11 - - 0.0
 
Date/Time
EDT
Temp
°C
App
Temp
°C
Dew
Point
°C
Rel
Hum
%
Delta-T
°C
Wind Press
QNH
hPa
Press
MSL
hPa
Rain since
9am
mm
Dir  Spd
km/h
Gust
km/h
Spd
kts
Gust
kts
25/11:30pm 22.6 22.9 18.8 79 2.4 ENE 15 20 8 11 - - 0.0
25/11:00pm 22.5 22.9 18.9 80 2.3 ENE 15 20 8 11 - - 0.0
25/10:30pm 22.7 22.2 18.7 78 2.5 ENE 19 24 10 13 - - 0.0
25/10:00pm 22.8 22.1 18.6 77 2.6 ENE 20 26 11 14 - - 0.0
25/09:30pm 22.8 22.3 18.6 77 2.6 ENE 19 24 10 13 - - 0.0
25/09:00pm 22.9 22.7 18.4 76 2.8 ENE 17 22 9 12 - - 0.0
25/08:30pm 22.7 22.9 18.5 77 2.6 ENE 15 20 8 11 - - 0.0
25/08:00pm 22.9 22.9 18.9 78 2.5 ENE 17 22 9 12 - - 0.0
25/07:30pm 22.8 22.4 19.0 79 2.4 E 19 22 10 12 - - 0.0
25/07:00pm 23.0 22.3 18.7 77 2.7 E 20 24 11 13 - - 0.0
25/06:30pm 22.9 22.2 18.7 77 2.7 E 20 24 11 13 - - 0.0
25/06:00pm 22.9 22.1 18.4 76 2.8 E 20 24 11 13 - - 0.0
25/05:30pm 23.1 22.2 18.2 74 3.1 ESE 20 24 11 13 - - 0.0
25/05:00pm 23.1 21.9 17.6 71 3.4 ESE 20 22 11 12 - - 0.0
25/04:30pm 23.2 22.1 17.4 70 3.6 ESE 19 22 10 12 - - 0.0
25/04:00pm 23.3 22.8 17.7 71 3.5 ESE 17 20 9 11 - - 0.0
25/03:30pm 23.7 23.6 17.9 70 3.6 SE 15 19 8 10 - - 0.0
25/03:00pm 23.8 24.2 18.2 71 3.5 SE 13 15 7 8 - - 0.0
25/02:30pm 23.9 24.7 18.1 70 3.6 SSE 11 13 6 7 - - 0.0
25/02:00pm 24.1 25.0 18.3 70 3.7 SSE 11 15 6 8 - - 0.0
25/01:30pm 23.9 24.6 18.8 73 3.2 S 13 15 7 8 - - 0.0
25/01:00pm 23.3 23.3 18.0 72 3.3 S 15 17 8 9 - - 0.0
25/12:30pm 23.3 23.3 18.0 72 3.3 S 15 17 8 9 - - 0.0
25/12:00pm 23.1 22.6 17.8 72 3.3 S 17 19 9 10 - - 0.0
25/11:30am 23.0 22.5 17.7 72 3.3 SSW 17 20 9 11 - - 0.0
25/11:00am 22.8 22.2 17.5 72 3.3 SSW 17 20 9 11 - - 0.0
25/10:30am 22.3 21.1 17.4 74 3.0 SSW 20 28 11 15 - - 0.0
25/10:00am 21.9 20.8 17.3 75 2.8 SSW 19 22 10 12 - - 0.0
25/09:30am 21.7 20.8 16.9 74 2.9 SSW 17 22 9 12 - - 0.0
25/09:00am 21.5 21.0 16.9 75 2.8 SW 15 22 8 12 - - 1.8
25/08:30am 21.0 20.0 16.6 76 2.7 SW 17 24 9 13 - - 1.8
25/08:00am 20.9 20.9 16.3 75 2.8 WSW 11 17 6 9 - - 1.8
25/07:30am 20.5 20.1 16.3 77 2.5 SW 13 22 7 12 - - 1.8
25/07:00am 20.2 19.0 16.2 78 2.4 SW 17 24 9 13 - - 1.8
25/06:30am 20.1 19.0 16.3 79 2.3 SW 17 24 9 13 - - 1.8
25/06:00am 20.1 19.0 16.3 79 2.3 SW 17 24 9 13 - - 1.8
25/05:30am 20.3 19.0 16.7 80 2.2 SW 19 28 10 15 - - 1.8
25/05:00am 20.3 19.3 16.5 79 2.3 SW 17 26 9 14 - - 1.8
25/04:30am 21.9 18.2 16.0 69 3.6 SSW 30 37 16 20 - - 1.8
25/04:00am 21.6 17.5 15.0 66 3.9 S 30 37 16 20 - - 1.8
25/03:30am 21.8 18.4 14.7 64 4.2 S 26 30 14 16 - - 1.8
25/03:00am 21.7 18.2 15.5 68 3.7 S 28 32 15 17 - - 1.8
25/02:30am 21.9 18.3 15.3 66 3.9 S 28 33 15 18 - - 1.8
25/02:00am 22.0 18.5 15.6 67 3.8 S 28 33 15 18 - - 1.8
25/01:30am 22.1 18.0 15.9 68 3.7 S 32 37 17 20 - - 1.8
25/01:00am 21.9 18.3 16.2 70 3.4 S 30 35 16 19 - - 1.8
25/12:30am 22.0 18.6 16.7 72 3.2 S 30 35 16 19 - - 1.8
25/12:00am 22.0 18.0 16.3 70 3.5 S 32 37 17 20 - - 1.8
 
Date/Time
EDT
Temp
°C
App
Temp
°C
Dew
Point
°C
Rel
Hum
%
Delta-T
°C
Wind Press
QNH
hPa
Press
MSL
hPa
Rain since
9am
mm
Dir  Spd
km/h
Gust
km/h
Spd
kts
Gust
kts
24/11:30pm 22.3 19.0 17.0 72 3.3 S 30 35 16 19 - - 1.8
24/11:00pm 22.2 18.1 16.5 70 3.5 S 33 41 18 22 - - 1.8
24/10:30pm 22.1 18.5 17.2 74 3.0 S 32 37 17 20 - - 1.8
24/10:00pm 22.2 18.1 17.3 74 3.0 S 35 39 19 21 - - 1.8
24/09:30pm 22.3 17.8 17.4 74 3.0 S 37 41 20 22 - - 1.8
24/09:00pm 22.1 18.4 17.0 73 3.1 S 32 39 17 21 - - 1.8
24/08:30pm 21.9 16.8 16.8 73 3.1 S 39 46 21 25 - - 1.8
24/08:00pm 22.2 18.1 17.3 74 3.0 S 35 43 19 23 - - 1.8
24/07:30pm 21.5 16.8 16.9 75 2.8 SSW 37 43 20 23 - - 1.8
24/07:00pm 21.3 17.1 17.1 77 2.6 S 35 46 19 25 - - 1.8
24/06:30pm 21.5 16.4 16.7 74 2.9 S 39 46 21 25 - - 1.8
24/06:00pm 21.2 15.7 16.8 76 2.7 S 41 48 22 26 - - 1.8
24/05:30pm 21.8 16.3 16.7 73 3.1 S 41 52 22 28 - - 1.8
24/05:00pm 21.9 17.2 17.7 77 2.6 S 39 48 21 26 - - 1.8
24/04:30pm 20.2 15.9 17.8 86 1.5 S 37 46 20 25 - - 1.8
24/04:00pm 20.3 15.7 18.8 91 0.9 S 41 56 22 30 - - 1.8
24/03:30pm 20.3 16.1 18.8 91 0.9 S 39 44 21 24 - - 1.8

Other formats

Comma delimited format used in spreadsheet applications
http://www.bom.gov.au/fwo/IDN60801/IDN60801.94774.axf

JavaScript Object Notation format (JSON) in row-major order
http://www.bom.gov.au/fwo/IDN60801/IDN60801.94774.json

Data quality

Most of these data are generated automatically and are frequently updated. Quality checks on data are not normally performed. It is possible for incorrect values to appear. Refer to information at About Latest Weather Observations and please check the disclaimer before using these data.